Spring, Texas
Current Conditions -  °F | °C
As of 7:53 PM on Friday 28 Nov 2014 (Local Time) from KDWH Reporting Station
Clear Clear  
Wind Chill: 61°   Ceiling: Unl
Heat Index: 61°   Visibility: 10mi
Dew Point: 55°   Wind: 5mph
Humidity: 81%   Direction: 160°SSE
Pressure: 30.15"   Gusts: NA
Location:  30.08°N, 95.42°W
Report Text: KDWH 290153Z 16004KT 10SM CLR 16/13 A3015 RMK AO2 SLP209 T01610128
Loading
Personal Weather Stations






























Interactive Weather Map New forecast layout! Learn more

10-Day Weather Forecast

Advertisements
Track Severe Weather on mobile